Time;durP1;ratioP1;P1;durP2;ratioP2;P2;SDS_P1;SDS_P2;PMS_P1;PMS_P2;Temp;Humidity;BMP_temperature;BMP_pressure;BME280_temperature;BME280_humidity;BME280_pressure;Samples;Min_cycle;Max_cycle;Signal;HPM_P1;HPM_P2
2021/12/19 00:10:25;;;;;;;87.45;49.88;;;1.40;99.90;;;;;;5090374;28;20089;-73
2021/12/19 00:12:52;;;;;;;95.93;51.55;;;1.50;99.90;;;;;;5092275;28;20565;-76
2021/12/19 00:15:18;;;;;;;95.78;52.05;;;1.50;99.90;;;;;;5089333;28;20047;-73
2021/12/19 00:17:44;;;;;;;104.47;53.90;;;1.40;99.90;;;;;;5092382;28;20537;-75
2021/12/19 00:20:10;;;;;;;102.55;57.25;;;1.50;99.90;;;;;;5092228;28;20040;-74
2021/12/19 00:22:36;;;;;;;102.78;53.83;;;1.50;99.90;;;;;;5074233;28;20032;-73
2021/12/19 00:25:04;;;;;;;91.82;51.80;;;1.50;99.90;;;;;;5092332;28;20410;-73
2021/12/19 00:27:30;;;;;;;89.10;49.45;;;1.40;99.90;;;;;;5091986;28;20039;-74
2021/12/19 00:29:56;;;;;;;79.88;47.58;;;1.40;99.90;;;;;;5091649;28;20036;-73
2021/12/19 00:32:22;;;;;;;89.13;50.40;;;1.40;99.90;;;;;;5091847;28;20044;-73
2021/12/19 00:34:51;;;;;;;83.05;48.78;;;1.40;99.90;;;;;;5091968;28;20063;-73
2021/12/19 00:37:19;;;;;;;92.70;51.08;;;1.40;99.90;;;;;;5092039;28;20028;-73
2021/12/19 00:39:45;;;;;;;87.15;50.22;;;1.40;99.90;;;;;;5092024;28;20100;-73
2021/12/19 00:42:11;;;;;;;81.40;48.50;;;1.40;99.90;;;;;;5092001;28;20550;-75
2021/12/19 00:44:38;;;;;;;87.63;49.05;;;1.30;99.90;;;;;;5091993;28;20040;-73
2021/12/19 00:47:07;;;;;;;100.45;55.75;;;1.30;99.90;;;;;;5091973;28;20371;-73
2021/12/19 00:49:35;;;;;;;82.15;48.35;;;1.30;99.90;;;;;;5091859;28;20058;-73
2021/12/19 00:52:02;;;;;;;82.55;49.45;;;1.30;99.90;;;;;;5111595;28;20039;-74
2021/12/19 00:54:28;;;;;;;83.80;50.92;;;1.30;99.90;;;;;;5095211;28;20433;-74
2021/12/19 00:56:54;;;;;;;103.28;56.53;;;1.30;99.90;;;;;;5113528;28;20044;-73
2021/12/19 00:59:20;;;;;;;110.38;57.72;;;1.30;99.90;;;;;;5113137;28;20583;-73
2021/12/19 01:01:47;;;;;;;94.70;54.50;;;1.30;99.90;;;;;;5111773;28;20448;-78
2021/12/19 01:04:15;;;;;;;91.03;53.00;;;1.30;99.90;;;;;;5099296;28;20545;-73
2021/12/19 01:06:44;;;;;;;90.50;51.78;;;1.40;99.90;;;;;;5092758;28;20052;-73
2021/12/19 01:09:11;;;;;;;96.22;53.33;;;1.40;99.90;;;;;;5092834;28;20047;-73
2021/12/19 01:11:37;;;;;;;87.28;49.75;;;1.40;99.90;;;;;;5092997;28;20059;-73
2021/12/19 01:14:03;;;;;;;79.60;48.47;;;1.40;99.90;;;;;;5092663;28;20067;-73
2021/12/19 01:16:30;;;;;;;104.93;58.15;;;1.30;99.90;;;;;;5092490;28;20447;-73
2021/12/19 01:18:56;;;;;;;86.72;50.45;;;1.30;99.90;;;;;;5092123;28;20051;-73
2021/12/19 01:21:22;;;;;;;92.85;52.00;;;1.40;99.90;;;;;;5074265;28;20040;-75
2021/12/19 01:23:48;;;;;;;86.03;52.42;;;1.30;99.90;;;;;;5092725;28;20505;-76
2021/12/19 01:26:14;;;;;;;87.43;51.65;;;1.40;99.90;;;;;;5092556;28;20085;-73
2021/12/19 01:28:42;;;;;;;92.30;53.35;;;1.40;99.90;;;;;;5092409;28;20530;-75
2021/12/19 01:31:09;;;;;;;88.57;52.30;;;1.40;99.90;;;;;;5092481;28;20071;-73
2021/12/19 01:33:35;;;;;;;91.30;52.00;;;1.40;99.90;;;;;;5087689;28;20536;-73
2021/12/19 01:36:02;;;;;;;89.38;50.40;;;1.40;99.90;;;;;;5052877;28;20069;-74
2021/12/19 01:38:30;;;;;;;80.38;47.47;;;1.40;99.90;;;;;;5070695;28;20045;-73
2021/12/19 01:40:56;;;;;;;78.18;48.50;;;1.40;99.90;;;;;;5073294;28;20040;-76
2021/12/19 01:43:24;;;;;;;90.13;51.80;;;1.40;99.90;;;;;;5091859;28;20048;-73
2021/12/19 01:45:51;;;;;;;86.10;50.65;;;1.40;99.90;;;;;;5058428;28;20036;-74
2021/12/19 01:48:17;;;;;;;85.95;51.75;;;1.50;99.90;;;;;;5076263;28;20045;-73
2021/12/19 01:50:44;;;;;;;80.35;47.33;;;1.50;99.90;;;;;;5076357;28;20044;-73
2021/12/19 01:53:11;;;;;;;77.47;45.72;;;1.40;99.90;;;;;;5058059;28;20061;-73
2021/12/19 01:55:38;;;;;;;90.40;54.47;;;1.40;99.90;;;;;;5075891;28;20064;-73
2021/12/19 01:58:03;;;;;;;84.25;52.20;;;1.50;99.90;;;;;;5075764;28;20029;-75
2021/12/19 02:00:42;;;;;;;80.60;47.10;;;1.50;99.90;;;;;;5091466;28;20032;-75
2021/12/19 02:03:10;;;;;;;79.65;48.88;;;1.50;99.90;;;;;;5075601;28;20127;-74
2021/12/19 02:05:37;;;;;;;79.65;48.53;;;1.50;99.90;;;;;;5078096;28;20037;-79
2021/12/19 02:08:16;;;;;;;77.57;45.95;;;1.50;99.90;;;;;;5096030;28;20534;-78
2021/12/19 02:10:42;;;;;;;76.30;45.72;;;1.40;99.90;;;;;;5095755;28;20047;-76
2021/12/19 02:13:10;;;;;;;76.20;45.42;;;1.40;99.90;;;;;;5095882;28;20051;-73
2021/12/19 02:15:37;;;;;;;82.35;49.60;;;1.30;99.90;;;;;;5095905;28;20050;-73
2021/12/19 02:18:08;;;;;;;81.63;47.95;;;1.30;99.90;;;;;;5095921;28;20079;-73
2021/12/19 02:20:38;;;;;;;76.03;45.67;;;1.30;99.90;;;;;;5095648;28;20131;-77
2021/12/19 02:23:05;;;;;;;76.63;46.63;;;1.30;99.90;;;;;;5077370;28;20440;-77
2021/12/19 02:25:32;;;;;;;72.28;45.28;;;1.20;99.90;;;;;;5095699;28;20070;-76
2021/12/19 02:27:58;;;;;;;73.75;45.53;;;1.20;99.90;;;;;;5095020;28;20043;-73
2021/12/19 02:30:23;;;;;;;79.00;46.15;;;1.20;99.90;;;;;;5094899;28;20036;-76
2021/12/19 02:32:52;;;;;;;84.57;48.85;;;1.10;99.90;;;;;;5077126;28;20122;-74
2021/12/19 02:35:28;;;;;;;84.80;49.28;;;1.10;99.90;;;;;;5094965;28;20067;-73
2021/12/19 02:48:09;;;;;;;86.18;51.60;;;1.20;99.90;;;;;;5095289;28;20109;-73
2021/12/19 02:48:58;;;;;;;82.05;48.15;;;1.30;99.90;;;;;;5057386;28;20400;-74
2021/12/19 02:51:24;;;;;;;82.88;48.85;;;1.30;99.90;;;;;;5094587;28;20048;-78
2021/12/19 02:53:50;;;;;;;77.80;47.20;;;1.30;99.90;;;;;;5094159;28;20040;-73
2021/12/19 02:56:15;;;;;;;85.47;49.83;;;1.20;99.90;;;;;;5095072;28;20047;-78
2021/12/19 02:58:43;;;;;;;74.88;47.35;;;1.20;99.90;;;;;;5095112;28;20093;-73
2021/12/19 03:01:16;;;;;;;84.13;50.03;;;1.10;99.90;;;;;;5094995;28;20044;-73
2021/12/19 03:03:42;;;;;;;102.90;53.78;;;1.20;99.90;;;;;;5094991;28;20032;-73
2021/12/19 03:06:08;;;;;;;80.97;47.60;;;1.20;99.90;;;;;;5094706;28;20471;-73
2021/12/19 03:08:35;;;;;;;84.47;49.90;;;1.30;99.90;;;;;;5094887;28;20048;-79
2021/12/19 03:17:56;;;;;;;84.07;48.88;;;1.30;99.90;;;;;;5094889;28;20036;-74
2021/12/19 03:19:03;;;;;;;85.60;49.90;;;1.30;99.90;;;;;;5094769;28;20058;-76
2021/12/19 03:21:29;;;;;;;81.05;48.67;;;1.40;99.90;;;;;;5076785;28;20101;-78
2021/12/19 03:23:55;;;;;;;84.53;50.72;;;1.30;99.90;;;;;;5094490;28;20441;-73
2021/12/19 03:26:20;;;;;;;79.13;48.53;;;1.40;99.90;;;;;;5094534;28;20135;-73
2021/12/19 03:28:46;;;;;;;80.53;48.78;;;1.40;99.90;;;;;;5110139;28;20403;-77
2021/12/19 03:31:12;;;;;;;86.78;50.83;;;1.50;99.90;;;;;;5094513;28;20127;-77
2021/12/19 03:33:38;;;;;;;81.97;48.70;;;1.50;99.90;;;;;;5094119;28;20035;-73
2021/12/19 03:36:06;;;;;;;79.88;47.90;;;1.40;99.90;;;;;;5093842;28;20046;-73
2021/12/19 03:38:38;;;;;;;94.40;56.83;;;1.40;99.90;;;;;;5093996;28;20123;-73
2021/12/19 03:41:15;;;;;;;88.22;52.53;;;1.40;99.90;;;;;;5075976;28;20070;-73
2021/12/19 03:43:41;;;;;;;85.63;50.20;;;1.40;99.90;;;;;;5109894;28;20395;-73
2021/12/19 03:46:07;;;;;;;89.38;51.75;;;1.40;99.90;;;;;;5094062;28;20122;-74
2021/12/19 03:48:33;;;;;;;88.90;51.45;;;1.40;99.90;;;;;;5094088;28;20523;-73
2021/12/19 03:50:59;;;;;;;84.20;50.72;;;1.40;99.90;;;;;;5094378;28;20072;-73
2021/12/19 03:53:25;;;;;;;88.50;52.30;;;1.40;99.90;;;;;;5094132;28;20042;-73
2021/12/19 03:55:51;;;;;;;89.93;51.78;;;1.40;99.90;;;;;;5094144;28;20047;-73
2021/12/19 03:58:18;;;;;;;88.30;50.30;;;1.30;99.90;;;;;;5094032;28;20044;-73
2021/12/19 04:00:45;;;;;;;86.80;49.97;;;1.20;99.90;;;;;;5093836;28;20039;-73
2021/12/19 04:03:17;;;;;;;85.65;50.22;;;1.20;99.90;;;;;;5093407;28;20044;-73
2021/12/19 04:05:44;;;;;;;80.70;48.33;;;1.20;99.90;;;;;;5093964;28;20046;-74
2021/12/19 04:08:10;;;;;;;83.28;45.40;;;1.10;99.90;;;;;;5093809;28;20036;-73
2021/12/19 04:10:36;;;;;;;78.18;45.67;;;1.00;99.90;;;;;;5093721;28;20569;-73
2021/12/19 04:13:02;;;;;;;80.97;46.13;;;1.00;99.90;;;;;;5093596;28;20044;-74
2021/12/19 04:15:28;;;;;;;74.68;46.05;;;1.00;99.90;;;;;;5093297;28;20047;-73
2021/12/19 04:17:54;;;;;;;85.82;48.70;;;1.00;99.90;;;;;;5093279;28;20039;-73
2021/12/19 04:20:20;;;;;;;80.32;47.10;;;1.10;99.90;;;;;;5093140;28;20036;-73
2021/12/19 04:22:51;;;;;;;85.97;48.28;;;1.10;99.90;;;;;;5093336;28;20043;-74
2021/12/19 04:25:17;;;;;;;75.25;45.13;;;1.10;99.90;;;;;;5093391;28;20044;-79
2021/12/19 04:27:43;;;;;;;82.97;47.20;;;1.10;99.90;;;;;;5093348;28;20040;-74
2021/12/19 04:30:12;;;;;;;77.07;45.72;;;1.10;99.90;;;;;;5074838;28;20040;-77
2021/12/19 04:32:43;;;;;;;77.93;45.30;;;1.20;99.90;;;;;;5093419;28;20036;-73
2021/12/19 04:35:10;;;;;;;81.05;47.10;;;1.10;99.90;;;;;;5093115;28;20510;-78
2021/12/19 05:00:57;;;;;;;102.78;54.47;;;1.30;99.90;;;;;;5093501;28;20392;-74
2021/12/19 05:03:46;;;;;;;91.90;52.47;;;1.40;99.90;;;;;;5093091;28;20040;-73
2021/12/19 05:14:23;;;;;;;105.82;54.63;;;1.20;99.90;;;;;;5037539;28;20077;-73
2021/12/19 05:16:51;;;;;;;98.72;53.05;;;1.10;99.90;;;;;;5095957;28;20399;-75
2021/12/19 05:19:31;;;;;;;104.95;54.75;;;1.10;99.90;;;;;;5096959;28;20063;-77
2021/12/19 05:22:01;;;;;;;99.75;53.95;;;1.20;99.90;;;;;;5096608;28;20043;-76
2021/12/19 05:26:58;;;;;;;94.90;52.28;;;1.10;99.90;;;;;;5096634;28;20087;-74
2021/12/19 05:29:24;;;;;;;105.93;53.08;;;1.20;99.90;;;;;;5096873;28;20086;-74
2021/12/19 05:31:50;;;;;;;110.53;56.15;;;1.30;99.90;;;;;;5096806;28;20113;-73
2021/12/19 05:34:15;;;;;;;106.57;54.50;;;1.40;99.90;;;;;;5096778;28;20040;-78
2021/12/19 05:45:19;;;;;;;106.32;53.15;;;1.40;99.90;;;;;;5067385;28;20066;-74
2021/12/19 05:47:47;;;;;;;100.45;52.30;;;1.30;99.90;;;;;;5096659;28;20070;-75
2021/12/19 05:50:15;;;;;;;96.00;53.33;;;1.30;99.90;;;;;;5095962;28;20043;-79
2021/12/19 05:52:41;;;;;;;102.75;54.15;;;1.40;99.90;;;;;;5111222;28;20097;-74
2021/12/19 05:55:07;;;;;;;97.57;48.75;;;1.50;99.90;;;;;;5095417;28;20060;-73
2021/12/19 05:57:34;;;;;;;92.40;48.17;;;1.30;99.90;;;;;;5078515;28;20483;-73
2021/12/19 06:00:00;;;;;;;90.25;47.03;;;1.20;99.90;;;;;;5096521;28;20051;-74
2021/12/19 06:02:27;;;;;;;97.88;48.40;;;1.10;99.90;;;;;;5096393;28;20047;-76
2021/12/19 06:04:53;;;;;;;88.00;46.78;;;1.10;99.90;;;;;;5096009;28;20044;-78
2021/12/19 06:07:18;;;;;;;87.80;46.15;;;1.10;99.90;;;;;;5077336;28;20032;-73
2021/12/19 06:09:44;;;;;;;94.13;48.40;;;1.20;99.90;;;;;;5095024;28;20078;-73
2021/12/19 06:12:10;;;;;;;102.15;51.17;;;1.20;99.90;;;;;;5077209;28;20036;-77
2021/12/19 06:14:36;;;;;;;97.50;49.38;;;1.20;99.90;;;;;;5095457;28;20077;-72
2021/12/19 06:17:03;;;;;;;97.53;49.30;;;1.20;99.90;;;;;;5095157;28;20448;-73
2021/12/19 06:19:29;;;;;;;112.50;52.08;;;1.20;99.90;;;;;;5095559;28;20071;-73
2021/12/19 06:21:55;;;;;;;104.53;50.35;;;1.20;99.90;;;;;;5095574;28;20498;-78
2021/12/19 06:24:21;;;;;;;110.82;53.17;;;1.20;99.90;;;;;;5093451;28;20056;-73
2021/12/19 06:26:47;;;;;;;121.70;53.20;;;1.20;99.90;;;;;;5075488;28;20032;-73
2021/12/19 06:29:13;;;;;;;102.47;47.28;;;1.20;99.90;;;;;;5087000;28;20051;-73
2021/12/19 06:31:39;;;;;;;90.72;44.65;;;1.10;99.90;;;;;;5062275;28;20032;-76
2021/12/19 06:34:05;;;;;;;101.00;46.65;;;1.10;99.90;;;;;;5075371;28;20082;-74
2021/12/19 06:36:31;;;;;;;95.15;45.17;;;1.00;99.90;;;;;;5095185;28;20232;-77
2021/12/19 06:38:57;;;;;;;84.38;43.05;;;1.00;99.90;;;;;;5095611;28;20081;-73
2021/12/19 06:41:23;;;;;;;91.05;43.95;;;1.00;99.90;;;;;;5095538;28;20039;-76
2021/12/19 06:43:49;;;;;;;90.18;43.30;;;0.90;99.90;;;;;;5095601;28;20116;-73
2021/12/19 06:46:15;;;;;;;83.88;42.83;;;0.90;99.90;;;;;;5095538;28;20067;-73
2021/12/19 06:48:41;;;;;;;94.22;42.70;;;1.00;99.90;;;;;;5095403;28;20609;-73
2021/12/19 06:51:07;;;;;;;84.65;42.17;;;0.90;99.90;;;;;;5095195;28;20071;-73
2021/12/19 06:53:33;;;;;;;80.20;41.75;;;1.00;99.90;;;;;;5095114;28;20067;-73
2021/12/19 06:55:58;;;;;;;85.53;40.45;;;1.00;99.90;;;;;;5081356;28;20110;-78
2021/12/19 06:58:25;;;;;;;76.05;40.90;;;1.00;99.90;;;;;;5074716;28;20040;-73
2021/12/19 07:00:51;;;;;;;83.88;43.10;;;1.00;99.90;;;;;;5075029;28;20036;-77
2021/12/19 07:03:22;;;;;;;93.15;47.25;;;1.00;99.90;;;;;;5074833;28;20373;-73
2021/12/19 07:05:49;;;;;;;95.50;46.42;;;1.10;99.90;;;;;;5074845;28;20408;-73
2021/12/19 07:08:15;;;;;;;92.25;46.53;;;1.10;99.90;;;;;;5074824;28;20094;-74
2021/12/19 07:10:40;;;;;;;93.10;44.90;;;1.20;99.90;;;;;;5074552;28;20048;-73
2021/12/19 07:13:06;;;;;;;83.68;45.20;;;1.10;99.90;;;;;;5056717;28;20415;-73
2021/12/19 07:15:32;;;;;;;94.95;45.78;;;1.10;99.90;;;;;;5074805;28;20056;-77
2021/12/19 07:18:02;;;;;;;90.20;47.13;;;1.00;99.90;;;;;;5074691;28;20044;-73
2021/12/19 07:20:29;;;;;;;105.70;48.78;;;1.00;99.90;;;;;;5074803;28;20056;-73
2021/12/19 07:22:55;;;;;;;105.78;48.85;;;1.00;99.90;;;;;;5074455;28;20085;-74
2021/12/19 07:25:21;;;;;;;100.85;49.30;;;1.00;99.90;;;;;;5074415;28;20040;-73
2021/12/19 07:27:46;;;;;;;107.10;51.75;;;1.00;99.90;;;;;;5074419;28;20036;-76
2021/12/19 07:30:12;;;;;;;102.20;49.20;;;1.00;99.90;;;;;;5074470;28;20449;-73
2021/12/19 07:32:39;;;;;;;101.78;50.22;;;1.00;99.90;;;;;;5074542;28;20043;-75
2021/12/19 07:35:08;;;;;;;89.75;44.67;;;1.00;99.90;;;;;;5073840;28;20109;-73
2021/12/19 07:37:36;;;;;;;99.90;47.75;;;1.00;99.90;;;;;;5073783;28;20403;-74
2021/12/19 07:40:19;;;;;;;92.80;46.17;;;1.10;99.90;;;;;;5073742;28;20049;-73
2021/12/19 07:42:45;;;;;;;96.75;45.90;;;1.10;99.90;;;;;;5074229;28;20526;-73
2021/12/19 07:45:11;;;;;;;99.97;48.15;;;1.10;99.90;;;;;;5074168;28;20051;-73
2021/12/19 07:47:39;;;;;;;100.80;48.67;;;1.10;99.90;;;;;;5074134;28;20123;-73
2021/12/19 07:50:06;;;;;;;101.30;48.45;;;1.00;99.90;;;;;;5073969;28;20034;-78
2021/12/19 07:52:32;;;;;;;102.53;48.20;;;1.00;99.90;;;;;;5056092;28;20037;-74
2021/12/19 07:54:58;;;;;;;99.72;46.33;;;1.00;99.90;;;;;;5073594;28;20064;-73
2021/12/19 07:57:24;;;;;;;95.13;47.05;;;1.00;99.90;;;;;;5073630;28;20044;-75
2021/12/19 07:59:50;;;;;;;93.72;45.30;;;1.00;99.90;;;;;;5073841;28;20040;-74
2021/12/19 08:02:16;;;;;;;105.22;48.20;;;1.00;99.90;;;;;;5073866;28;20041;-73
2021/12/19 08:04:41;;;;;;;98.97;45.55;;;0.90;99.90;;;;;;5073770;28;20032;-73
2021/12/19 08:07:11;;;;;;;92.40;44.38;;;0.90;99.90;;;;;;5089403;28;20408;-73
2021/12/19 08:09:40;;;;;;;84.68;41.40;;;0.90;99.90;;;;;;5073529;28;20119;-73
2021/12/19 08:12:07;;;;;;;90.15;43.38;;;0.90;99.90;;;;;;5073503;28;20111;-72
2021/12/19 08:14:33;;;;;;;92.07;44.88;;;0.90;99.90;;;;;;5073566;28;20044;-73
2021/12/19 08:16:59;;;;;;;93.88;46.80;;;0.90;99.90;;;;;;5073578;28;20102;-73
2021/12/19 08:19:25;;;;;;;87.20;42.63;;;0.90;99.90;;;;;;5073285;28;20093;-73
2021/12/19 08:21:52;;;;;;;96.55;44.40;;;0.90;99.90;;;;;;5073436;28;20411;-76
2021/12/19 08:24:19;;;;;;;85.53;43.85;;;0.80;99.90;;;;;;5085549;28;20035;-73
2021/12/19 08:26:46;;;;;;;82.80;42.55;;;0.80;99.90;;;;;;5093735;28;20130;-74
2021/12/19 08:29:12;;;;;;;84.90;43.33;;;0.80;99.90;;;;;;5093116;28;20545;-73
2021/12/19 08:31:40;;;;;;;91.65;43.80;;;0.80;99.90;;;;;;5093524;28;20079;-73
2021/12/19 08:34:06;;;;;;;86.70;42.47;;;0.80;99.90;;;;;;5093343;28;20040;-73
2021/12/19 08:36:31;;;;;;;99.78;43.65;;;0.90;99.90;;;;;;5092654;28;20050;-76
2021/12/19 08:38:58;;;;;;;116.40;47.28;;;0.80;99.90;;;;;;5092500;28;20491;-72
2021/12/19 08:41:24;;;;;;;109.13;44.47;;;0.80;99.90;;;;;;5073541;28;20040;-74
2021/12/19 08:43:50;;;;;;;107.55;47.65;;;0.90;99.90;;;;;;5091633;28;20140;-73
2021/12/19 08:46:16;;;;;;;109.85;48.83;;;1.10;99.90;;;;;;5091381;28;20138;-72
2021/12/19 08:48:43;;;;;;;97.57;45.05;;;0.80;99.90;;;;;;5089683;28;20035;-77
2021/12/19 08:51:09;;;;;;;95.82;45.50;;;0.70;99.90;;;;;;5092031;28;20522;-73
2021/12/19 08:53:34;;;;;;;131.43;46.92;;;0.80;99.90;;;;;;5092202;28;20047;-74
2021/12/19 08:56:00;;;;;;;112.25;47.22;;;0.80;99.90;;;;;;5090780;28;20579;-73
2021/12/19 08:58:28;;;;;;;91.07;44.22;;;0.80;99.90;;;;;;5091105;28;20419;-74
2021/12/19 09:01:01;;;;;;;110.05;51.35;;;0.90;99.90;;;;;;5109297;28;20043;-74
2021/12/19 09:03:31;;;;;;;104.55;49.58;;;1.00;99.90;;;;;;5111504;28;20398;-71
2021/12/19 09:05:57;;;;;;;109.97;52.90;;;1.00;99.90;;;;;;5111173;28;20039;-71
2021/12/19 09:08:23;;;;;;;94.85;43.70;;;0.90;99.90;;;;;;5110961;28;20058;-71
2021/12/19 09:10:49;;;;;;;97.80;45.97;;;0.80;99.90;;;;;;5111562;28;20070;-71
2021/12/19 09:13:15;;;;;;;94.43;42.15;;;0.80;99.90;;;;;;5111042;28;20131;-72
2021/12/19 09:15:41;;;;;;;90.10;41.80;;;;;;;;;;5107398;28;20534;-72
2021/12/19 09:18:07;;;;;;;96.28;44.75;;;0.60;99.90;;;;;;5095251;28;20050;-71
2021/12/19 09:20:33;;;;;;;93.85;44.28;;;0.70;99.90;;;;;;5073837;28;20035;-74
2021/12/19 09:22:59;;;;;;;97.60;43.55;;;0.90;99.90;;;;;;5089917;28;20036;-71
2021/12/19 09:25:25;;;;;;;99.63;43.17;;;0.90;99.90;;;;;;5077098;28;20045;-71
2021/12/19 09:27:51;;;;;;;95.63;43.88;;;1.00;99.90;;;;;;5071695;28;20135;-74
2021/12/19 09:30:17;;;;;;;89.82;41.80;;;1.00;99.90;;;;;;5060035;28;20101;-72
2021/12/19 09:32:43;;;;;;;90.65;42.53;;;1.00;99.90;;;;;;5088772;28;20600;-71
2021/12/19 09:35:10;;;;;;;94.10;43.45;;;1.00;99.90;;;;;;5090380;28;20083;-71
2021/12/19 09:37:36;;;;;;;100.53;47.00;;;1.00;99.90;;;;;;5090405;28;20056;-72
2021/12/19 09:40:10;;;;;;;92.07;44.20;;;1.10;99.90;;;;;;5090222;28;20102;-73
2021/12/19 09:42:37;;;;;;;98.80;46.53;;;1.10;99.90;;;;;;5088045;28;20039;-73
2021/12/19 09:45:05;;;;;;;91.82;44.65;;;1.10;99.90;;;;;;5077419;28;20044;-73
2021/12/19 09:47:31;;;;;;;86.30;45.20;;;1.20;99.90;;;;;;5069625;28;20357;-73
2021/12/19 09:49:57;;;;;;;79.75;39.92;;;1.20;99.90;;;;;;5070083;28;20039;-73
2021/12/19 09:52:24;;;;;;;92.88;47.08;;;1.10;99.90;;;;;;5070137;28;20039;-74
2021/12/19 09:54:50;;;;;;;103.22;46.60;;;1.20;99.90;;;;;;5070856;28;20104;-73
2021/12/19 09:57:16;;;;;;;95.18;46.08;;;1.20;99.90;;;;;;5070620;28;20076;-72
2021/12/19 09:59:43;;;;;;;127.95;47.28;;;1.10;99.90;;;;;;5083333;28;20025;-73
2021/12/19 10:02:09;;;;;;;97.68;45.65;;;1.00;99.90;;;;;;5071130;28;20041;-73
2021/12/19 10:04:37;;;;;;;98.82;48.08;;;1.10;99.90;;;;;;5073433;28;20036;-73
2021/12/19 10:07:04;;;;;;;91.47;44.92;;;1.20;99.90;;;;;;5055333;28;20395;-73
2021/12/19 10:09:30;;;;;;;92.65;43.55;;;1.30;99.90;;;;;;5073404;28;20434;-73
2021/12/19 10:12:10;;;;;;;92.53;44.50;;;1.20;99.90;;;;;;5073026;28;20629;-73
2021/12/19 10:14:37;;;;;;;86.53;41.83;;;1.20;99.90;;;;;;5073071;28;20047;-73
2021/12/19 10:17:16;;;;;;;94.47;44.20;;;1.20;99.90;;;;;;5072730;28;20534;-74
2021/12/19 10:19:48;;;;;;;109.28;47.88;;;1.10;99.90;;;;;;5073718;28;20036;-77
2021/12/19 10:22:34;;;;;;;97.75;45.35;;;0.90;99.90;;;;;;5055884;28;20032;-73
2021/12/19 10:25:18;;;;;;;80.00;39.95;;;1.00;99.90;;;;;;5056144;28;20040;-72
2021/12/19 10:27:46;;;;;;;110.25;48.17;;;1.00;99.90;;;;;;5073633;28;20484;-72
2021/12/19 10:30:25;;;;;;;110.05;49.63;;;0.90;99.90;;;;;;5073303;28;20037;-74
2021/12/19 10:32:54;;;;;;;97.90;45.28;;;1.10;99.90;;;;;;5085146;28;20089;-72
2021/12/19 10:35:23;;;;;;;108.13;46.65;;;1.00;99.90;;;;;;5095044;28;20056;-73
2021/12/19 10:37:49;;;;;;;102.93;46.05;;;1.00;99.90;;;;;;5094591;28;20044;-74
2021/12/19 10:40:15;;;;;;;106.70;48.50;;;1.00;99.90;;;;;;5097922;28;20043;-78
2021/12/19 10:42:52;;;;;;;107.22;47.05;;;1.00;99.90;;;;;;5102482;28;20034;-75
2021/12/19 10:45:31;;;;;;;102.05;45.63;;;0.90;99.90;;;;;;5104005;28;20464;-77
2021/12/19 10:48:18;;;;;;;100.53;46.15;;;1.00;99.90;;;;;;5103074;28;20032;-78
2021/12/19 10:50:48;;;;;;;117.10;47.58;;;0.80;99.90;;;;;;5072937;28;20064;-75
2021/12/19 10:53:15;;;;;;;112.25;45.35;;;0.90;99.90;;;;;;5072702;28;20131;-78
2021/12/19 10:55:45;;;;;;;104.32;48.13;;;0.90;99.90;;;;;;5054761;28;20066;-77
2021/12/19 10:58:27;;;;;;;108.38;47.97;;;0.90;99.90;;;;;;5093086;28;20048;-72
2021/12/19 11:01:10;;;;;;;123.78;48.17;;;0.90;99.90;;;;;;5104199;28;20070;-72
2021/12/19 11:03:49;;;;;;;142.63;47.40;;;0.80;99.90;;;;;;5114928;28;20483;-74
2021/12/19 11:06:21;;;;;;;107.60;46.83;;;0.80;99.90;;;;;;5076881;28;20071;-71
2021/12/19 11:08:47;;;;;;;114.43;47.33;;;0.90;99.90;;;;;;5088380;28;20044;-71
2021/12/19 11:11:32;;;;;;;117.05;48.63;;;0.90;99.90;;;;;;5089769;28;20051;-72
2021/12/19 11:13:59;;;;;;;119.43;48.90;;;1.00;99.90;;;;;;5082876;28;20135;-72
2021/12/19 11:16:26;;;;;;;120.60;49.88;;;1.10;99.90;;;;;;5092017;28;20048;-70
2021/12/19 11:18:51;;;;;;;105.80;46.40;;;1.10;99.90;;;;;;5092249;28;20036;-70
2021/12/19 11:21:18;;;;;;;125.60;46.45;;;1.10;99.90;;;;;;5091874;28;20032;-71
2021/12/19 11:23:48;;;;;;;97.70;41.72;;;1.00;99.90;;;;;;5074195;28;20039;-72
2021/12/19 11:26:16;;;;;;;105.90;45.92;;;0.80;99.90;;;;;;5088734;28;20097;-70
2021/12/19 11:28:43;;;;;;;104.90;42.55;;;0.90;99.90;;;;;;5091073;28;20036;-71
2021/12/19 11:31:11;;;;;;;104.63;44.78;;;0.90;99.90;;;;;;5073435;28;20391;-73
2021/12/19 11:33:46;;;;;;;117.03;43.95;;;0.90;99.90;;;;;;5073115;28;20044;-69
2021/12/19 11:36:13;;;;;;;112.13;44.88;;;0.90;99.90;;;;;;5091691;28;20048;-73
2021/12/19 11:38:39;;;;;;;108.43;45.30;;;0.90;99.90;;;;;;5091469;28;20397;-73
2021/12/19 11:41:09;;;;;;;159.90;48.15;;;0.90;99.90;;;;;;5104892;28;20146;-75
2021/12/19 11:43:43;;;;;;;144.30;48.28;;;0.90;99.90;;;;;;5101038;28;20032;-71
2021/12/19 11:46:24;;;;;;;110.53;47.97;;;0.90;99.90;;;;;;5087077;28;20044;-69
2021/12/19 11:49:28;;;;;;;111.05;46.10;;;0.80;99.90;;;;;;5111870;28;20074;-70
2021/12/19 11:52:30;;;;;;;103.18;43.08;;;0.80;99.90;;;;;;5051881;28;20384;-70
2021/12/19 11:55:34;;;;;;;235.23;49.40;;;0.90;99.90;;;;;;5053164;28;20075;-71
2021/12/19 11:58:12;;;;;;;179.93;48.60;;;1.00;99.90;;;;;;5068932;28;20071;-72
2021/12/19 12:00:47;;;;;;;116.05;47.47;;;1.10;99.90;;;;;;5071056;28;20124;-71
2021/12/19 12:03:21;;;;;;;113.72;47.40;;;1.00;99.90;;;;;;5070730;28;20566;-72
2021/12/19 12:05:50;;;;;;;124.47;49.63;;;1.00;99.90;;;;;;5070813;28;20410;-71
2021/12/19 12:08:25;;;;;;;149.02;69.95;;;1.20;99.90;;;;;;5070627;28;20032;-71
2021/12/19 12:11:01;;;;;;;153.05;66.78;;;1.20;99.90;;;;;;5070358;28;20044;-71
2021/12/19 12:13:34;;;;;;;118.53;48.60;;;1.30;99.90;;;;;;5069460;28;20028;-72
2021/12/19 12:16:19;;;;;;;137.40;58.58;;;1.20;99.90;;;;;;5070741;28;20044;-72
2021/12/19 12:19:04;;;;;;;133.75;55.10;;;1.30;99.90;;;;;;5070839;28;20041;-71
2021/12/19 12:24:16;;;;;;;111.97;52.13;;;1.40;99.90;;;;;;5080118;28;20041;-71
2021/12/19 12:27:04;;;;;;;116.70;54.10;;;1.50;99.90;;;;;;5068823;28;20037;-70
2021/12/19 12:29:31;;;;;;;132.95;62.90;;;1.60;99.90;;;;;;5070890;28;20511;-72
2021/12/19 12:32:12;;;;;;;131.60;60.60;;;1.50;99.90;;;;;;5070974;28;20048;-71
2021/12/19 12:34:39;;;;;;;107.72;50.05;;;1.50;99.90;;;;;;5070778;28;20444;-72
2021/12/19 12:37:06;;;;;;;114.75;53.97;;;1.50;99.90;;;;;;5072692;28;20571;-73
2021/12/19 12:39:37;;;;;;;108.82;48.58;;;1.50;99.90;;;;;;5090825;28;20038;-73
2021/12/19 12:42:11;;;;;;;111.30;50.63;;;1.30;99.90;;;;;;5091095;28;20046;-72
2021/12/19 12:44:37;;;;;;;144.90;78.38;;;1.30;99.90;;;;;;5091797;28;20052;-72
2021/12/19 12:47:07;;;;;;;110.50;52.92;;;1.40;99.90;;;;;;5071550;28;20127;-70
2021/12/19 12:49:34;;;;;;;124.60;61.50;;;1.50;99.90;;;;;;5056473;28;20077;-72
2021/12/19 12:52:04;;;;;;;111.15;53.05;;;1.50;99.90;;;;;;5089752;28;20024;-73
2021/12/19 12:54:37;;;;;;;142.25;70.70;;;1.60;99.90;;;;;;5083027;28;20077;-78
2021/12/19 12:57:10;;;;;;;115.13;55.83;;;1.50;99.90;;;;;;5074386;28;20062;-77
2021/12/19 12:59:39;;;;;;;140.07;49.53;;;1.50;99.90;;;;;;5070244;28;20086;-73
2021/12/19 13:02:20;;;;;;;137.65;51.60;;;1.40;99.90;;;;;;5085762;28;20074;-76
2021/12/19 13:04:51;;;;;;;121.88;50.05;;;1.40;99.90;;;;;;5072846;28;20127;-73
2021/12/19 13:07:19;;;;;;;137.20;52.10;;;1.40;99.90;;;;;;5089585;28;20032;-72
2021/12/19 13:10:00;;;;;;;116.18;54.47;;;1.40;99.90;;;;;;5072477;28;20495;-72
2021/12/19 13:12:33;;;;;;;119.60;55.83;;;1.40;99.90;;;;;;5067781;28;20041;-73
2021/12/19 13:15:00;;;;;;;124.07;57.40;;;1.50;99.90;;;;;;5074978;28;20380;-74
2021/12/19 13:20:36;;;;;;;;;;;;;;;;;;;;;
2021/12/19 13:23:04;;;;;;;124.88;57.20;;;1.40;99.90;;;;;;5091168;28;20515;-73
2021/12/19 13:25:40;;;;;;;121.22;58.97;;;1.50;99.90;;;;;;5090352;28;20075;-72
2021/12/19 13:28:10;;;;;;;107.47;52.47;;;1.40;99.90;;;;;;5088850;28;20372;-72
2021/12/19 13:30:39;;;;;;;111.90;52.37;;;1.30;99.90;;;;;;5100422;28;20028;-72
2021/12/19 13:33:10;;;;;;;105.55;49.55;;;1.50;99.90;;;;;;5106645;28;20282;-73
2021/12/19 13:35:39;;;;;;;105.70;50.75;;;1.50;99.90;;;;;;5072439;28;20048;-73
2021/12/19 13:38:08;;;;;;;104.82;49.35;;;1.60;99.90;;;;;;5094001;28;20046;-73
2021/12/19 13:40:40;;;;;;;137.05;67.30;;;1.60;99.90;;;;;;5094471;28;20437;-73
2021/12/19 13:43:15;;;;;;;107.93;52.28;;;1.50;99.90;;;;;;5076363;28;20040;-72
2021/12/19 13:45:53;;;;;;;105.18;49.72;;;1.50;99.90;;;;;;5094655;28;20071;-73
2021/12/19 13:48:24;;;;;;;117.90;53.22;;;1.50;99.90;;;;;;5101406;28;20498;-73
2021/12/19 13:51:09;;;;;;;104.72;50.85;;;1.50;99.90;;;;;;5076647;28;20063;-73
2021/12/19 13:53:43;;;;;;;104.13;50.35;;;1.50;99.90;;;;;;5097526;28;20040;-74